Weather - Helsinki Query any day in the database

Current weather  

Weather data for a selected day (2006-01-01 -2020-09-21)
Enter date:     <-     scroll days         ->
day curves
Low temperature°C +12.223:30
High temperature°C +17.816:30
Low wind chill°C 11.501:30
Average temperature°C +14.7 
High wind speed (10 min) m/s 6.111:30
Low pressurehPa 1017.918:30
High pressurehPa 1020.200:30
Low R.H% 6019:30
High R.H% 9804:30
High precipitation (1h)mm 3.004:00
Total precipitation of the daymm 11.2 
Day weather data as a table
Date Time Temp
°C
Chill
°C
Pressure
hPA
Wind
m/s
Hum
%
Precip
mm
2020-08-13 23:30:00 12.2  12.2  1018.2 1.4 87 -
2020-08-13 23:00:00 12.3  12.3  1018.3 1.1 88 -
2020-08-13 22:30:00 12.6  12.4  1018.4 1.8 86 -
2020-08-13 22:00:00 13.3  13.0  1018.3 2.0 83 -
2020-08-13 21:30:00 13.9  13.9  1018.3 1.8 81 -
2020-08-13 21:00:00 15.1  15.0  1018.2 2.3 74 -
2020-08-13 20:30:00 15.7  15.6  1018.2 2.5 70 -
2020-08-13 20:00:00 16.3  15.8  1018.0 3.8 63 -
2020-08-13 19:30:00 16.6  15.9  1018.0 4.7 60 -
2020-08-13 19:00:00 16.7  15.9  1018.0 5.1 66 -
2020-08-13 18:30:00 16.9  16.2  1017.9 5.0 65 -
2020-08-13 18:00:00 17.0  16.3  1018.0 5.3 65 -
2020-08-13 17:30:00 17.1  16.4  1018.1 5.1 63 -
2020-08-13 17:00:00 17.5  17.0  1018.0 4.7 63 -
2020-08-13 16:30:00 17.8  17.3  1018.0 5.3 65 -
2020-08-13 16:00:00 17.6  17.5  1017.9 3.5 65 -
2020-08-13 15:30:00 17.4  17.1  1018.1 4.0 69 -
2020-08-13 15:00:00 16.9  16.2  1018.1 4.9 68 -
2020-08-13 14:30:00 17.0  16.5  1018.1 4.5 69 -
2020-08-13 14:00:00 16.5  15.6  1018.2 5.6 72 -
2020-08-13 13:30:00 16.1  15.0  1018.3 5.7 73 -
2020-08-13 13:00:00 15.9  15.1  1018.2 4.5 78 -
2020-08-13 12:30:00 15.1  13.8  1018.3 5.8 80 -
2020-08-13 12:00:00 15.4  14.4  1018.2 4.7 79 -
2020-08-13 11:30:00 15.0  13.6  1018.3 6.1 80 -
2020-08-13 11:00:00 15.3  14.1  1018.3 5.6 78 -
2020-08-13 10:30:00 15.3  14.6  1018.2 3.8 84 -
2020-08-13 10:00:00 14.4  13.3  1018.1 4.2 89 -
2020-08-13 09:30:00 14.1  13.0  1018.1 4.2 92 -
2020-08-13 09:00:00 13.9  12.8  1018.2 4.0 92 -
2020-08-13 08:30:00 13.7  12.7  1018.1 3.5 94 -
2020-08-13 08:00:00 13.7  12.8  1018.3 3.3 94 -
2020-08-13 07:30:00 13.5  12.5  1018.3 3.5 95 -
2020-08-13 07:00:00 13.5  12.8  1018.3 2.8 97 0.1
2020-08-13 06:30:00 13.1  12.5  1018.3 2.4 97 -
2020-08-13 06:00:00 13.0  12.0  1018.4 3.2 97 1.2
2020-08-13 05:30:00 13.0  11.9  1018.7 3.4 97 -
2020-08-13 05:00:00 13.1  12.0  1018.7 3.4 97 1.0
2020-08-13 04:30:00 13.2  12.0  1018.9 3.7 98 -
2020-08-13 04:00:00 13.3  12.3  1019.1 3.3 98 3.0
2020-08-13 03:30:00 13.3  12.2  1019.3 3.7 98 -
2020-08-13 03:00:00 13.1  12.8  1019.5 2.0 98 2.2
2020-08-13 02:30:00 13.1  12.2  1019.7 3.0 98 -
2020-08-13 02:00:00 13.1  11.9  1019.8 3.8 97 0.7
2020-08-13 01:30:00 13.2  11.5  1019.9 5.1 96 -
2020-08-13 01:00:00 13.3  11.8  1020.0 4.6 97 1.5
2020-08-13 00:30:00 13.3  12.5  1020.2 3.0 97 -
2020-08-13 00:00:00 13.4  12.2  1020.2 3.9 96 1.5
Unit conversions: